createdAt,value
2019-05-31T00:01:23.847Z,99872.41
2019-05-31T00:03:51.075Z,99872.41
2019-05-31T00:06:18.743Z,99868.69
2019-05-31T00:08:45.371Z,99871.11
2019-05-31T00:11:12.043Z,99862.11
2019-05-31T00:13:38.765Z,99854.18
2019-05-31T00:16:10.471Z,99860.28
2019-05-31T00:18:38.774Z,99862.16
2019-05-31T00:21:05.492Z,99681.28
2019-05-31T00:23:31.835Z,99865.30
2019-05-31T00:25:58.351Z,99858.26
2019-05-31T00:28:25.615Z,99863.45
2019-05-31T00:30:56.060Z,99867.94
2019-05-31T00:33:22.464Z,99869.94
2019-05-31T00:35:50.072Z,99651.36
2019-05-31T00:38:16.733Z,99864.77
2019-05-31T00:40:43.821Z,99647.89
2019-05-31T00:43:11.278Z,99861.80
2019-05-31T00:45:37.614Z,99830.02
2019-05-31T00:48:04.206Z,99855.73
2019-05-31T00:50:30.559Z,99853.66
2019-05-31T00:52:57.882Z,99858.26
2019-05-31T00:55:24.082Z,99854.89
2019-05-31T00:57:50.367Z,99853.88
2019-05-31T01:00:16.737Z,99858.94
2019-05-31T01:02:44.570Z,99856.52
2019-05-31T01:05:12.279Z,99857.64
2019-05-31T01:07:39.030Z,99853.12
2019-05-31T01:10:08.300Z,99859.05
2019-05-31T01:12:35.319Z,99845.78
2019-05-31T01:15:06.311Z,99849.48
2019-05-31T01:17:32.800Z,99853.83
2019-05-31T01:20:00.405Z,99850.39
2019-05-31T01:22:26.813Z,99857.03
2019-05-31T01:24:53.005Z,99851.69
2019-05-31T01:27:19.975Z,99853.37
2019-05-31T01:29:46.294Z,99852.23
2019-05-31T01:32:12.604Z,99819.07
2019-05-31T01:34:39.182Z,99859.54
2019-05-31T01:37:06.252Z,99849.83
2019-05-31T01:39:32.648Z,99850.22
2019-05-31T01:41:59.173Z,99852.91
2019-05-31T01:44:26.230Z,99855.49
2019-05-31T01:46:52.600Z,99856.12
2019-05-31T01:49:18.764Z,99876.19
2019-05-31T01:51:44.835Z,99853.44
2019-05-31T01:54:12.448Z,99860.73
2019-05-31T01:56:39.991Z,99860.73
2019-05-31T01:59:06.955Z,99858.20
2019-05-31T02:01:33.710Z,99851.17
2019-05-31T02:04:00.204Z,99853.48
2019-05-31T02:06:26.459Z,99848.75
2019-05-31T02:08:52.935Z,99853.75
2019-05-31T02:11:19.713Z,99847.50
2019-05-31T02:13:45.868Z,99857.34
2019-05-31T02:16:12.441Z,99860.27
2019-05-31T02:18:38.649Z,99854.25
2019-05-31T02:21:05.519Z,99852.58
2019-05-31T02:23:31.835Z,99854.61
2019-05-31T02:25:58.344Z,99848.86
2019-05-31T02:28:24.557Z,99857.92
2019-05-31T02:30:50.491Z,99852.58
2019-05-31T02:33:17.747Z,99855.27
2019-05-31T02:35:44.037Z,99853.86
2019-05-31T02:38:13.199Z,99858.31
2019-05-31T02:40:38.697Z,99854.25
2019-05-31T02:43:04.765Z,99852.97
2019-05-31T02:45:46.598Z,99853.75
2019-05-31T02:47:59.014Z,99856.05
2019-05-31T02:50:34.708Z,99849.81
2019-05-31T02:53:01.359Z,99850.56
2019-05-31T02:55:28.045Z,99853.64
2019-05-31T02:57:57.481Z,99852.11
2019-05-31T03:00:23.534Z,99855.67
2019-05-31T03:02:51.895Z,99848.02
2019-05-31T03:05:19.499Z,99854.42
2019-05-31T03:07:46.800Z,99850.20
2019-05-31T03:10:15.371Z,99855.83
2019-05-31T03:12:42.685Z,99852.73
2019-05-31T03:15:08.705Z,99853.88
2019-05-31T03:17:35.178Z,99860.15
2019-05-31T03:20:01.473Z,99851.30
2019-05-31T03:22:27.713Z,99684.34
2019-05-31T03:24:54.150Z,99854.48
2019-05-31T03:27:20.752Z,99861.36
2019-05-31T03:29:47.402Z,99856.67
2019-05-31T03:32:16.153Z,99856.52
2019-05-31T03:34:41.995Z,99862.14
2019-05-31T03:37:08.362Z,99858.08
2019-05-31T03:39:34.710Z,99857.56
2019-05-31T03:42:00.903Z,99854.98
2019-05-31T03:44:27.222Z,99859.05
2019-05-31T03:46:53.939Z,99862.09
2019-05-31T03:49:20.724Z,99655.50
2019-05-31T03:51:46.983Z,99860.67
2019-05-31T03:54:15.061Z,99861.67
2019-05-31T03:56:41.336Z,99866.63
2019-05-31T03:59:07.345Z,99864.51
2019-05-31T04:01:33.740Z,99866.14
2019-05-31T04:03:59.967Z,99864.95
2019-05-31T04:06:26.503Z,99866.59
2019-05-31T04:08:52.818Z,99688.73
2019-05-31T04:11:19.328Z,99873.95
2019-05-31T04:13:45.815Z,99869.00
2019-05-31T04:16:12.118Z,99869.63
2019-05-31T04:18:38.077Z,99872.93
2019-05-31T04:21:04.089Z,99883.04
2019-05-31T04:23:30.601Z,99885.69
2019-05-31T04:25:56.661Z,99688.45
2019-05-31T04:28:24.646Z,99887.47
2019-05-31T04:30:51.149Z,99888.00
2019-05-31T04:33:18.094Z,99877.70
2019-05-31T04:35:44.209Z,99884.22
2019-05-31T04:38:10.558Z,99883.34
2019-05-31T04:40:36.475Z,99905.09
2019-05-31T04:43:02.894Z,99884.38
2019-05-31T04:45:31.147Z,99882.88
2019-05-31T04:47:57.285Z,99903.61
2019-05-31T04:50:25.099Z,99897.27
2019-05-31T04:52:52.054Z,99898.21
2019-05-31T04:55:18.439Z,99702.00
2019-05-31T04:57:44.948Z,99891.12
2019-05-31T05:00:12.111Z,99897.69
2019-05-31T05:02:38.456Z,99893.87
2019-05-31T05:05:05.487Z,99891.72
2019-05-31T05:07:31.741Z,99895.05
2019-05-31T05:09:57.897Z,99895.98
2019-05-31T05:12:24.685Z,99904.81
2019-05-31T05:14:50.810Z,99892.55
2019-05-31T05:17:29.749Z,99890.25
2019-05-31T05:19:44.799Z,99894.51
2019-05-31T05:22:10.976Z,99894.91
2019-05-31T05:24:36.981Z,99899.39
2019-05-31T05:27:03.324Z,99897.62
2019-05-31T05:29:29.775Z,99890.72
2019-05-31T05:31:55.961Z,99893.92
2019-05-31T05:34:22.218Z,99904.42
2019-05-31T05:36:48.275Z,99899.34
2019-05-31T05:39:14.327Z,99899.38
2019-05-31T05:41:40.449Z,99905.18
2019-05-31T05:44:06.971Z,99910.95
2019-05-31T05:46:33.101Z,99719.22
2019-05-31T05:48:59.319Z,99918.95
2019-05-31T05:51:26.294Z,99919.61
2019-05-31T05:53:52.611Z,99928.61
2019-05-31T05:56:18.787Z,99932.60
2019-05-31T05:58:45.046Z,99923.26
2019-05-31T06:01:11.086Z,99931.20
2019-05-31T06:03:37.578Z,99933.52
2019-05-31T06:06:04.488Z,99736.99
2019-05-31T06:08:34.572Z,99767.99
2019-05-31T06:10:58.895Z,99932.22
2019-05-31T06:13:26.121Z,99935.45
2019-05-31T06:15:52.449Z,99889.81
2019-05-31T06:18:18.658Z,99932.91
2019-05-31T06:20:45.073Z,99940.59
2019-05-31T06:23:11.508Z,99935.59
2019-05-31T06:25:39.015Z,99941.48
2019-05-31T06:28:05.747Z,99935.98
2019-05-31T06:30:32.862Z,99935.21
2019-05-31T06:32:58.941Z,99928.39
2019-05-31T06:35:26.834Z,99936.08
2019-05-31T06:37:53.988Z,99936.98
2019-05-31T06:40:20.595Z,99935.16
2019-05-31T06:42:46.971Z,99935.69
2019-05-31T06:45:13.316Z,99756.05
2019-05-31T06:47:39.867Z,99933.09
2019-05-31T06:50:06.371Z,99930.38
2019-05-31T06:52:34.414Z,99935.09
2019-05-31T06:55:00.575Z,99934.84
2019-05-31T06:57:27.966Z,99936.04
2019-05-31T06:59:54.633Z,99935.76
2019-05-31T07:02:20.846Z,99928.63
2019-05-31T07:04:46.880Z,99931.00
2019-05-31T07:07:12.956Z,99929.66
2019-05-31T07:09:38.999Z,99918.88
2019-05-31T07:12:16.676Z,99925.02
2019-05-31T07:14:34.674Z,99928.02
2019-05-31T07:17:03.747Z,99924.52
2019-05-31T07:19:30.107Z,99911.23
2019-05-31T07:21:56.870Z,99913.89
2019-05-31T07:24:22.944Z,99916.19
2019-05-31T07:27:00.162Z,99917.24
2019-05-31T07:29:31.179Z,99920.77
2019-05-31T07:31:50.866Z,99760.26
2019-05-31T07:34:13.204Z,99921.67
2019-05-31T07:36:40.476Z,99923.91
2019-05-31T07:39:06.585Z,99939.70
2019-05-31T07:41:34.819Z,99929.09
2019-05-31T07:44:02.965Z,99927.70
2019-05-31T07:46:29.266Z,99932.27
2019-05-31T07:49:07.153Z,99785.25
2019-05-31T07:51:24.157Z,99915.29
2019-05-31T07:53:50.582Z,99920.23
2019-05-31T07:56:16.774Z,99919.59
2019-05-31T07:58:55.545Z,99914.89
2019-05-31T08:01:10.873Z,99913.92
2019-05-31T08:03:37.061Z,99930.38
2019-05-31T08:06:03.611Z,99907.02
2019-05-31T08:08:29.950Z,99658.27
2019-05-31T08:11:02.827Z,99914.69
2019-05-31T08:13:27.141Z,99748.38
2019-05-31T08:15:53.838Z,99911.40
2019-05-31T08:18:19.852Z,99909.14
2019-05-31T08:20:46.119Z,99919.70
2019-05-31T08:23:13.107Z,99922.05
2019-05-31T08:25:39.529Z,99913.27
2019-05-31T08:28:05.833Z,99913.98
2019-05-31T08:30:32.737Z,99914.50
2019-05-31T08:32:59.226Z,99908.13
2019-05-31T08:35:27.055Z,99917.48
2019-05-31T08:37:53.407Z,99909.63
2019-05-31T08:40:20.100Z,99906.17
2019-05-31T08:42:46.699Z,99911.00
2019-05-31T08:45:14.855Z,99900.73
2019-05-31T08:47:45.973Z,99900.25
2019-05-31T08:50:13.374Z,99907.39
2019-05-31T08:52:54.269Z,99914.89
2019-05-31T08:55:20.385Z,99921.80
2019-05-31T08:57:46.601Z,99918.60
2019-05-31T09:00:14.016Z,99933.70
2019-05-31T09:02:40.852Z,99911.13
2019-05-31T09:05:07.241Z,99751.79
2019-05-31T09:07:34.293Z,99904.95
2019-05-31T09:10:00.884Z,99908.16
2019-05-31T09:12:27.215Z,99899.06
2019-05-31T09:14:53.547Z,99898.06
2019-05-31T09:17:23.139Z,99896.57
2019-05-31T09:19:58.876Z,99906.33
2019-05-31T09:22:18.037Z,99898.06
2019-05-31T09:24:45.247Z,99893.68
2019-05-31T09:27:11.488Z,99889.34
2019-05-31T09:30:04.878Z,99894.17
2019-05-31T09:32:06.355Z,99896.52
2019-05-31T09:34:33.149Z,99899.31
2019-05-31T09:36:59.879Z,99909.86
2019-05-31T09:39:26.088Z,99897.52
2019-05-31T09:41:54.450Z,99902.56
2019-05-31T09:44:20.963Z,99899.71
2019-05-31T09:46:47.396Z,99917.74
2019-05-31T09:49:13.749Z,99901.16
2019-05-31T09:51:41.920Z,99903.30
2019-05-31T09:54:08.221Z,99904.03
2019-05-31T09:56:35.802Z,99909.34
2019-05-31T09:59:04.287Z,99914.36
2019-05-31T10:01:34.820Z,99917.06
2019-05-31T10:04:02.927Z,99764.21
2019-05-31T10:06:29.388Z,99910.88
2019-05-31T10:08:56.533Z,99916.06
2019-05-31T10:11:23.118Z,99920.70
2019-05-31T10:13:49.571Z,99916.87
2019-05-31T10:16:15.509Z,99930.89
2019-05-31T10:18:42.904Z,99850.63
2019-05-31T10:21:09.104Z,99930.16
2019-05-31T10:23:48.539Z,99911.09
2019-05-31T10:26:03.885Z,99910.88
2019-05-31T10:28:30.655Z,99906.94
2019-05-31T10:31:14.118Z,99903.44
2019-05-31T10:33:25.781Z,99902.16
2019-05-31T10:35:51.796Z,99730.07
2019-05-31T10:38:18.475Z,99891.03
2019-05-31T10:40:45.112Z,99888.42
2019-05-31T10:43:11.165Z,99894.55
2019-05-31T10:45:42.051Z,99886.44
2019-05-31T10:48:08.852Z,99881.03
2019-05-31T10:50:49.518Z,99889.16
2019-05-31T10:53:03.792Z,99890.06
2019-05-31T10:55:31.041Z,99886.55
2019-05-31T10:57:57.349Z,99875.07
2019-05-31T11:00:26.894Z,99879.44
2019-05-31T11:02:54.058Z,99880.20
2019-05-31T11:05:20.971Z,99876.16
2019-05-31T11:07:47.433Z,99882.18
2019-05-31T11:10:15.233Z,99889.70
2019-05-31T11:12:43.309Z,99891.13
2019-05-31T11:15:10.015Z,99876.70
2019-05-31T11:17:43.011Z,99877.80
2019-05-31T11:20:09.774Z,99871.44
2019-05-31T11:22:39.852Z,99724.83
2019-05-31T11:25:10.035Z,99877.28
2019-05-31T11:27:38.838Z,99876.13
2019-05-31T11:30:12.423Z,99868.12
2019-05-31T11:32:40.535Z,99880.13
2019-05-31T11:35:10.788Z,99871.45
2019-05-31T11:37:36.912Z,99873.40
2019-05-31T11:40:07.938Z,99876.73
2019-05-31T11:42:56.924Z,99875.78
2019-05-31T11:45:04.921Z,99872.09
2019-05-31T11:47:31.347Z,99864.81
2019-05-31T11:50:00.100Z,99877.34
2019-05-31T11:52:26.724Z,99874.48
2019-05-31T11:55:21.922Z,99872.20
2019-05-31T11:57:22.791Z,99872.11
2019-05-31T11:59:52.252Z,99743.33
2019-05-31T12:02:18.795Z,99878.48
2019-05-31T12:04:48.017Z,99877.64
2019-05-31T12:07:15.181Z,99871.91
2019-05-31T12:09:43.414Z,99876.16
2019-05-31T12:12:10.840Z,99874.06
2019-05-31T12:14:38.159Z,99875.61
2019-05-31T12:17:04.819Z,99871.91
2019-05-31T12:19:30.926Z,99868.78
2019-05-31T12:22:01.010Z,99869.53
2019-05-31T12:24:25.931Z,99866.09
2019-05-31T12:26:52.784Z,99868.03
2019-05-31T12:29:19.397Z,99862.78
2019-05-31T12:31:46.033Z,99871.46
2019-05-31T12:34:12.202Z,99862.01
2019-05-31T12:36:40.361Z,99853.72
2019-05-31T12:39:06.772Z,99864.92
2019-05-31T12:41:33.194Z,99868.17
2019-05-31T12:44:00.042Z,99856.82
2019-05-31T12:46:26.200Z,99858.62
2019-05-31T12:48:52.231Z,99854.81
2019-05-31T12:51:26.930Z,99856.16
2019-05-31T12:53:46.664Z,99852.50
2019-05-31T12:56:12.913Z,99860.94
2019-05-31T12:58:39.091Z,99852.22
2019-05-31T13:01:05.289Z,99857.19
2019-05-31T13:03:31.696Z,99861.72
2019-05-31T13:05:58.178Z,99851.46
2019-05-31T13:08:24.783Z,99849.80
2019-05-31T13:10:52.427Z,99849.27
2019-05-31T13:13:19.144Z,99851.66
2019-05-31T13:15:46.759Z,99854.52
2019-05-31T13:18:13.547Z,99868.56
2019-05-31T13:20:39.835Z,99850.84
2019-05-31T13:23:06.285Z,99844.59
2019-05-31T13:25:34.254Z,99850.52
2019-05-31T13:28:00.295Z,99849.67
2019-05-31T13:30:26.666Z,99844.04
2019-05-31T13:32:56.364Z,99836.88
2019-05-31T13:35:20.652Z,99840.16
2019-05-31T13:37:47.490Z,99838.52
2019-05-31T13:40:14.047Z,99845.70
2019-05-31T13:42:40.170Z,99842.44
2019-05-31T13:45:10.926Z,99843.71
2019-05-31T13:47:37.147Z,99834.39
2019-05-31T13:50:06.737Z,99839.76
2019-05-31T13:52:41.023Z,99817.91
2019-05-31T13:55:02.372Z,99824.67
2019-05-31T13:57:28.724Z,99825.72
2019-05-31T13:59:55.558Z,99834.84
2019-05-31T14:02:21.613Z,99825.84
2019-05-31T14:04:47.561Z,99829.48
2019-05-31T14:07:13.763Z,99664.64
2019-05-31T14:09:39.826Z,99831.86
2019-05-31T14:12:06.099Z,99822.19
2019-05-31T14:14:32.537Z,99825.70
2019-05-31T14:16:59.211Z,99829.31
2019-05-31T14:19:25.387Z,99821.64
2019-05-31T14:21:51.850Z,99822.39
2019-05-31T14:24:17.850Z,99824.00
2019-05-31T14:26:43.926Z,99827.77
2019-05-31T14:29:10.552Z,99822.78
2019-05-31T14:31:36.573Z,99654.25
2019-05-31T14:34:02.589Z,99823.60
2019-05-31T14:36:28.926Z,99817.89
2019-05-31T14:38:56.434Z,99816.92
2019-05-31T14:41:22.729Z,99816.13
2019-05-31T14:43:50.324Z,99809.11
2019-05-31T14:46:16.748Z,99801.63
2019-05-31T14:48:42.663Z,99802.42
2019-05-31T14:51:09.244Z,99799.23
2019-05-31T14:53:35.469Z,99808.70
2019-05-31T14:56:02.170Z,99809.84
2019-05-31T14:58:28.597Z,99804.44
2019-05-31T15:00:55.304Z,99797.86
2019-05-31T15:03:21.754Z,99793.66
2019-05-31T15:05:47.812Z,99784.21
2019-05-31T15:08:14.080Z,99727.60
2019-05-31T15:10:42.335Z,99795.53
2019-05-31T15:13:21.963Z,99788.64
2019-05-31T15:15:36.607Z,99782.89
2019-05-31T15:18:03.629Z,99642.66
2019-05-31T15:20:29.897Z,99787.92
2019-05-31T15:22:56.760Z,99784.13
2019-05-31T15:25:23.353Z,99791.83
2019-05-31T15:27:50.461Z,99778.50
2019-05-31T15:30:35.936Z,99788.73
2019-05-31T15:33:17.832Z,99775.45
2019-05-31T15:36:04.471Z,99632.15
2019-05-31T15:38:49.232Z,99782.61
2019-05-31T15:41:04.326Z,99747.66
2019-05-31T15:43:31.294Z,99769.75
2019-05-31T15:45:58.682Z,99771.75
2019-05-31T15:48:25.198Z,99769.82
2019-05-31T15:50:51.307Z,99626.45
2019-05-31T15:53:32.895Z,99767.45
2019-05-31T15:55:50.265Z,99766.81
2019-05-31T15:58:15.034Z,99757.36
2019-05-31T16:00:44.175Z,99760.73
2019-05-31T16:03:10.414Z,99751.67
2019-05-31T16:05:36.676Z,99758.11
2019-05-31T16:08:04.626Z,99754.05
2019-05-31T16:10:31.027Z,99753.61
2019-05-31T16:13:00.634Z,99758.02
2019-05-31T16:15:26.928Z,99754.95
2019-05-31T16:17:54.209Z,99756.63
2019-05-31T16:20:23.974Z,99754.73
2019-05-31T16:22:51.894Z,99751.37
2019-05-31T16:25:18.333Z,99748.38
2019-05-31T16:27:45.047Z,99613.27
2019-05-31T16:30:11.821Z,99751.27
2019-05-31T16:32:38.092Z,99759.21
2019-05-31T16:35:06.462Z,99743.59
2019-05-31T16:37:32.869Z,99751.39
2019-05-31T16:40:00.413Z,99752.84
2019-05-31T16:42:26.547Z,99753.64
2019-05-31T16:44:52.658Z,99754.22
2019-05-31T16:47:18.750Z,99748.31
2019-05-31T16:49:56.847Z,99746.88
2019-05-31T16:52:13.441Z,99745.98
2019-05-31T16:54:40.556Z,99694.73
2019-05-31T16:57:12.289Z,99752.06
2019-05-31T16:59:38.347Z,99745.78
2019-05-31T17:02:04.456Z,99751.45
2019-05-31T17:04:30.500Z,99743.09
2019-05-31T17:06:57.006Z,99750.52
2019-05-31T17:09:23.279Z,99750.32
2019-05-31T17:11:49.480Z,99747.16
2019-05-31T17:14:15.567Z,99748.00
2019-05-31T17:16:41.607Z,99749.11
2019-05-31T17:19:08.192Z,99743.09
2019-05-31T17:21:34.438Z,99746.68
2019-05-31T17:24:00.589Z,99744.45
2019-05-31T17:26:27.322Z,99741.70
2019-05-31T17:28:55.573Z,99747.76
2019-05-31T17:31:21.667Z,99737.50
2019-05-31T17:33:48.290Z,99734.53
2019-05-31T17:36:14.356Z,99747.34
2019-05-31T17:38:40.877Z,99745.47
2019-05-31T17:41:07.723Z,99743.04
2019-05-31T17:43:33.910Z,99740.78
2019-05-31T17:46:00.093Z,99737.66
2019-05-31T17:48:26.974Z,99737.36
2019-05-31T17:50:53.277Z,99741.27
2019-05-31T17:53:19.575Z,99746.22
2019-05-31T17:55:45.808Z,99751.47
2019-05-31T17:58:12.956Z,99738.50
2019-05-31T18:00:39.191Z,99741.67
2019-05-31T18:03:07.704Z,99739.02
2019-05-31T18:05:33.847Z,99742.30
2019-05-31T18:08:00.174Z,99740.62
2019-05-31T18:10:40.450Z,99745.02
2019-05-31T18:13:10.324Z,99742.12
2019-05-31T18:15:37.296Z,99740.69
2019-05-31T18:18:04.307Z,99732.98
2019-05-31T18:20:30.335Z,99719.50
2019-05-31T18:22:56.947Z,99735.00
2019-05-31T18:25:26.708Z,99734.05
2019-05-31T18:27:51.012Z,99743.28
2019-05-31T18:30:33.603Z,99742.42
2019-05-31T18:32:45.755Z,99753.08
2019-05-31T18:35:12.493Z,99733.38
2019-05-31T18:37:39.293Z,99570.95
2019-05-31T18:40:06.303Z,99732.78
2019-05-31T18:42:32.593Z,99738.95
2019-05-31T18:44:58.828Z,99737.69
2019-05-31T18:47:26.790Z,99737.94
2019-05-31T18:49:53.249Z,99732.97
2019-05-31T18:52:22.203Z,99738.01
2019-05-31T18:54:49.248Z,99744.49
2019-05-31T18:57:15.312Z,99747.98
2019-05-31T18:59:41.379Z,99740.36
2019-05-31T19:02:08.031Z,99735.30
2019-05-31T19:04:40.260Z,99739.80
2019-05-31T19:07:02.656Z,99766.62
2019-05-31T19:09:29.192Z,99746.54
2019-05-31T19:11:55.270Z,99758.34
2019-05-31T19:14:22.944Z,99764.41
2019-05-31T19:16:49.382Z,99750.89
2019-05-31T19:19:15.501Z,99747.80
2019-05-31T19:21:42.011Z,99747.75
2019-05-31T19:24:08.729Z,99747.67
2019-05-31T19:26:35.381Z,99582.61
2019-05-31T19:29:01.713Z,99758.19
2019-05-31T19:31:28.256Z,99757.55
2019-05-31T19:33:54.307Z,99751.34
2019-05-31T19:36:20.603Z,99759.23
2019-05-31T19:38:47.110Z,99757.07
2019-05-31T19:41:15.074Z,99759.08
2019-05-31T19:43:41.174Z,99775.08
2019-05-31T19:46:07.725Z,99759.72
2019-05-31T19:48:33.888Z,99583.56
2019-05-31T19:51:00.410Z,99763.69
2019-05-31T19:56:11.832Z,99764.59
2019-05-31T19:58:24.150Z,99760.67
2019-05-31T19:59:34.777Z,99791.25
2019-05-31T20:00:51.435Z,99770.95
2019-05-31T20:03:17.767Z,99768.77
2019-05-31T20:05:44.371Z,99762.23
2019-05-31T20:08:12.431Z,99766.95
2019-05-31T20:10:39.694Z,99769.02
2019-05-31T20:13:07.329Z,99765.18
2019-05-31T20:15:33.467Z,99778.49
2019-05-31T20:17:59.631Z,99770.27
2019-05-31T20:20:27.518Z,99771.67
2019-05-31T20:22:54.076Z,99779.07
2019-05-31T20:25:22.949Z,99775.22
2019-05-31T20:27:48.571Z,99769.44
2019-05-31T20:30:21.468Z,99585.16
2019-05-31T20:32:43.321Z,99771.36
2019-05-31T20:35:10.075Z,99766.22
2019-05-31T20:37:36.117Z,99772.61
2019-05-31T20:40:06.838Z,99776.70
2019-05-31T20:42:54.008Z,99778.09
2019-05-31T20:45:01.015Z,99774.12
2019-05-31T20:47:27.696Z,99778.84
2019-05-31T20:50:05.238Z,99779.59
2019-05-31T20:52:23.358Z,99769.54
2019-05-31T20:54:49.470Z,99779.52
2019-05-31T20:57:16.159Z,99775.88
2019-05-31T20:59:42.213Z,99773.11
2019-05-31T21:02:08.398Z,99782.09
2019-05-31T21:04:34.872Z,99777.80
2019-05-31T21:07:00.908Z,99777.09
2019-05-31T21:09:27.435Z,99785.52
2019-05-31T21:11:54.246Z,99776.45
2019-05-31T21:14:21.727Z,99778.35
2019-05-31T21:16:47.967Z,99775.58
2019-05-31T21:19:14.264Z,99786.30
2019-05-31T21:21:40.310Z,99776.88
2019-05-31T21:24:06.708Z,99771.81
2019-05-31T21:26:33.871Z,99784.47
2019-05-31T21:29:00.996Z,99776.28
2019-05-31T21:31:27.412Z,99777.88
2019-05-31T21:33:53.473Z,99781.38
2019-05-31T21:36:21.413Z,99775.67
2019-05-31T21:38:47.770Z,99772.78
2019-05-31T21:41:13.964Z,99779.74
2019-05-31T21:43:39.960Z,99782.91
2019-05-31T21:46:06.380Z,99779.49
2019-05-31T21:48:33.945Z,99772.82
2019-05-31T21:51:00.291Z,99768.48
2019-05-31T21:53:27.535Z,99795.70
2019-05-31T21:55:53.836Z,99785.21
2019-05-31T21:58:19.993Z,99791.66
2019-05-31T22:00:47.595Z,99779.66
2019-05-31T22:03:30.208Z,99780.98
2019-05-31T22:05:42.813Z,99777.83
2019-05-31T22:08:08.979Z,99774.40
2019-05-31T22:10:35.276Z,99771.60
2019-05-31T22:13:04.386Z,99780.23
2019-05-31T22:15:31.436Z,99772.05
2019-05-31T22:18:01.545Z,99769.24
2019-05-31T22:20:28.146Z,99767.36
2019-05-31T22:22:54.409Z,99771.33
2019-05-31T22:25:20.973Z,99774.31
2019-05-31T22:27:47.013Z,99783.94
2019-05-31T22:30:31.617Z,99779.86
2019-05-31T22:32:57.628Z,99775.90
2019-05-31T22:35:23.960Z,99778.24
2019-05-31T22:37:50.376Z,99777.84
2019-05-31T22:40:16.902Z,99768.77
2019-05-31T22:42:43.767Z,99780.98
2019-05-31T22:45:09.941Z,99552.53
2019-05-31T22:47:37.339Z,99779.73
2019-05-31T22:50:05.412Z,99779.88
2019-05-31T22:52:33.035Z,99779.11
2019-05-31T22:54:59.523Z,99781.83
2019-05-31T22:57:25.718Z,99779.80
2019-05-31T22:59:52.590Z,99773.27
2019-05-31T23:02:18.634Z,99782.64
2019-05-31T23:04:45.474Z,99785.09
2019-05-31T23:07:11.713Z,99781.76
2019-05-31T23:09:38.021Z,99777.24
2019-05-31T23:12:04.409Z,99781.21
2019-05-31T23:14:30.633Z,99780.58
2019-05-31T23:16:56.848Z,99778.68
2019-05-31T23:19:22.863Z,99774.71
2019-05-31T23:21:49.011Z,99762.03
2019-05-31T23:24:15.009Z,99767.29
2019-05-31T23:26:41.716Z,99771.00
2019-05-31T23:29:07.770Z,99763.58
2019-05-31T23:31:34.912Z,99765.24
2019-05-31T23:34:01.063Z,99765.37
2019-05-31T23:36:27.401Z,99769.74
2019-05-31T23:38:53.374Z,99765.00
2019-05-31T23:41:19.414Z,99767.17
2019-05-31T23:43:46.633Z,99763.08
2019-05-31T23:46:12.770Z,99763.22
2019-05-31T23:48:38.845Z,99757.69
2019-05-31T23:51:05.274Z,99758.72
2019-05-31T23:53:31.172Z,99756.04
2019-05-31T23:55:57.102Z,99757.58
2019-05-31T23:58:23.462Z,99765.49
